sensor_id;sensor_type;location;lat;lon;timestamp;P1;P2;P0
50866;PMS7003;36839;51.946;21.002;2023-04-24T00:01:51;32.00;27.50;18.50
50866;PMS7003;36839;51.946;21.002;2023-04-24T00:04:19;29.00;26.00;19.00
50866;PMS7003;36839;51.946;21.002;2023-04-24T00:06:51;39.00;30.50;20.00
50866;PMS7003;36839;51.946;21.002;2023-04-24T00:09:23;31.00;28.50;21.50
50866;PMS7003;36839;51.946;21.002;2023-04-24T00:11:51;36.50;28.00;21.00
50866;PMS7003;36839;51.946;21.002;2023-04-24T00:14:22;29.00;27.00;21.00
50866;PMS7003;36839;51.946;21.002;2023-04-24T00:16:51;37.00;32.00;23.00
50866;PMS7003;36839;51.946;21.002;2023-04-24T00:19:19;40.33;34.33;25.33
50866;PMS7003;36839;51.946;21.002;2023-04-24T00:21:55;36.00;33.00;24.00
50866;PMS7003;36839;51.946;21.002;2023-04-24T00:24:26;33.00;31.00;23.00
50866;PMS7003;36839;51.946;21.002;2023-04-24T00:26:56;39.00;33.00;23.00
50866;PMS7003;36839;51.946;21.002;2023-04-24T00:29:26;38.50;32.50;22.50
50866;PMS7003;36839;51.946;21.002;2023-04-24T00:31:56;43.00;36.00;24.33
50866;PMS7003;36839;51.946;21.002;2023-04-24T00:34:24;43.50;35.00;24.50
50866;PMS7003;36839;51.946;21.002;2023-04-24T00:36:51;44.50;36.00;26.50
50866;PMS7003;36839;51.946;21.002;2023-04-24T00:39:20;35.00;33.00;23.00
50866;PMS7003;36839;51.946;21.002;2023-04-24T00:41:47;37.50;29.50;20.50
50866;PMS7003;36839;51.946;21.002;2023-04-24T00:44:14;32.50;28.00;21.00
50866;PMS7003;36839;51.946;21.002;2023-04-24T00:46:41;33.00;31.00;22.00
50866;PMS7003;36839;51.946;21.002;2023-04-24T00:49:09;46.00;36.00;24.00
50866;PMS7003;36839;51.946;21.002;2023-04-24T00:51:37;37.50;33.50;23.00
50866;PMS7003;36839;51.946;21.002;2023-04-24T00:54:05;32.50;29.00;21.50
50866;PMS7003;36839;51.946;21.002;2023-04-24T00:56:34;37.00;30.00;21.00
50866;PMS7003;36839;51.946;21.002;2023-04-24T00:59:04;38.00;34.00;23.00
50866;PMS7003;36839;51.946;21.002;2023-04-24T01:01:31;34.00;33.00;23.00
50866;PMS7003;36839;51.946;21.002;2023-04-24T01:04:09;40.50;32.00;22.00
50866;PMS7003;36839;51.946;21.002;2023-04-24T01:06:38;34.00;29.00;21.00
50866;PMS7003;36839;51.946;21.002;2023-04-24T01:09:14;32.00;27.00;20.00
50866;PMS7003;36839;51.946;21.002;2023-04-24T01:11:42;31.00;29.00;21.00
50866;PMS7003;36839;51.946;21.002;2023-04-24T01:14:09;45.50;34.00;23.50
50866;PMS7003;36839;51.946;21.002;2023-04-24T01:16:38;42.00;33.50;23.00
50866;PMS7003;36839;51.946;21.002;2023-04-24T01:19:06;32.00;30.00;21.00
50866;PMS7003;36839;51.946;21.002;2023-04-24T01:21:34;31.50;30.50;21.50
50866;PMS7003;36839;51.946;21.002;2023-04-24T01:24:05;37.00;31.00;21.00
50866;PMS7003;36839;51.946;21.002;2023-04-24T01:26:34;31.00;26.00;18.00
50866;PMS7003;36839;51.946;21.002;2023-04-24T01:29:01;32.50;28.00;19.50
50866;PMS7003;36839;51.946;21.002;2023-04-24T01:31:29;36.00;29.00;19.00
50866;PMS7003;36839;51.946;21.002;2023-04-24T01:34:10;44.00;35.00;25.00
50866;PMS7003;36839;51.946;21.002;2023-04-24T01:36:40;33.33;31.33;21.67
50866;PMS7003;36839;51.946;21.002;2023-04-24T01:39:10;40.50;34.50;24.00
50866;PMS7003;36839;51.946;21.002;2023-04-24T01:41:39;37.50;33.50;22.50
50866;PMS7003;36839;51.946;21.002;2023-04-24T01:44:06;30.00;28.50;21.00
50866;PMS7003;36839;51.946;21.002;2023-04-24T01:46:34;31.00;26.00;16.00
50866;PMS7003;36839;51.946;21.002;2023-04-24T01:49:04;34.00;30.00;22.00
50866;PMS7003;36839;51.946;21.002;2023-04-24T01:51:33;42.50;33.50;23.50
50866;PMS7003;36839;51.946;21.002;2023-04-24T01:54:03;36.00;33.00;24.00
50866;PMS7003;36839;51.946;21.002;2023-04-24T01:56:30;34.00;29.00;21.00
50866;PMS7003;36839;51.946;21.002;2023-04-24T01:59:06;30.00;28.50;21.00
50866;PMS7003;36839;51.946;21.002;2023-04-24T02:01:38;29.00;26.00;19.00
50866;PMS7003;36839;51.946;21.002;2023-04-24T02:04:18;21.00;19.00;9.00
50866;PMS7003;36839;51.946;21.002;2023-04-24T02:06:45;32.50;28.50;20.00
50866;PMS7003;36839;51.946;21.002;2023-04-24T02:09:15;28.00;23.33;19.00
50866;PMS7003;36839;51.946;21.002;2023-04-24T02:11:42;32.00;28.33;21.00
50866;PMS7003;36839;51.946;21.002;2023-04-24T02:14:09;29.50;28.50;20.00
50866;PMS7003;36839;51.946;21.002;2023-04-24T02:16:36;30.50;27.00;18.50
50866;PMS7003;36839;51.946;21.002;2023-04-24T02:19:03;32.67;24.67;18.33
50866;PMS7003;36839;51.946;21.002;2023-04-24T02:21:30;30.00;27.00;20.00
50866;PMS7003;36839;51.946;21.002;2023-04-24T02:24:01;41.00;30.00;21.00
50866;PMS7003;36839;51.946;21.002;2023-04-24T02:26:30;25.50;24.00;20.00
50866;PMS7003;36839;51.946;21.002;2023-04-24T02:28:58;33.00;31.00;21.00
50866;PMS7003;36839;51.946;21.002;2023-04-24T02:31:27;30.00;27.00;20.00
50866;PMS7003;36839;51.946;21.002;2023-04-24T02:33:55;23.50;23.50;18.00
50866;PMS7003;36839;51.946;21.002;2023-04-24T02:36:25;27.00;25.00;21.00
50866;PMS7003;36839;51.946;21.002;2023-04-24T02:38:53;31.00;27.00;20.00
50866;PMS7003;36839;51.946;21.002;2023-04-24T02:41:21;37.00;31.00;21.00
50866;PMS7003;36839;51.946;21.002;2023-04-24T02:43:49;34.50;30.50;22.00
50866;PMS7003;36839;51.946;21.002;2023-04-24T02:46:18;32.00;27.33;20.00
50866;PMS7003;36839;51.946;21.002;2023-04-24T02:49:00;33.00;27.00;19.50
50866;PMS7003;36839;51.946;21.002;2023-04-24T02:51:30;28.00;25.00;19.50
50866;PMS7003;36839;51.946;21.002;2023-04-24T02:53:57;26.50;22.50;18.50
50866;PMS7003;36839;51.946;21.002;2023-04-24T02:56:24;32.00;30.00;21.00
50866;PMS7003;36839;51.946;21.002;2023-04-24T02:58:52;30.50;28.00;21.00
50866;PMS7003;36839;51.946;21.002;2023-04-24T03:01:19;28.00;26.50;19.50
50866;PMS7003;36839;51.946;21.002;2023-04-24T03:03:47;30.00;26.50;19.00
50866;PMS7003;36839;51.946;21.002;2023-04-24T03:06:14;30.50;28.00;21.00
50866;PMS7003;36839;51.946;21.002;2023-04-24T03:08:43;33.00;28.50;21.00
50866;PMS7003;36839;51.946;21.002;2023-04-24T03:11:10;37.00;32.00;23.00
50866;PMS7003;36839;51.946;21.002;2023-04-24T03:13:39;30.50;29.00;22.00
50866;PMS7003;36839;51.946;21.002;2023-04-24T03:16:06;30.00;27.00;20.00
50866;PMS7003;36839;51.946;21.002;2023-04-24T03:18:35;32.00;28.00;20.00
50866;PMS7003;36839;51.946;21.002;2023-04-24T03:21:02;28.67;27.00;20.00
50866;PMS7003;36839;51.946;21.002;2023-04-24T03:23:30;32.50;28.00;21.00
50866;PMS7003;36839;51.946;21.002;2023-04-24T03:26:06;27.67;27.67;21.67
50866;PMS7003;36839;51.946;21.002;2023-04-24T03:28:33;30.00;29.00;21.00
50866;PMS7003;36839;51.946;21.002;2023-04-24T03:31:02;30.00;26.00;19.00
50866;PMS7003;36839;51.946;21.002;2023-04-24T03:33:31;32.00;28.00;20.00
50866;PMS7003;36839;51.946;21.002;2023-04-24T03:35:59;33.50;26.50;21.00
50866;PMS7003;36839;51.946;21.002;2023-04-24T03:38:26;33.33;26.00;20.33
50866;PMS7003;36839;51.946;21.002;2023-04-24T03:40:53;32.00;26.00;20.00
50866;PMS7003;36839;51.946;21.002;2023-04-24T03:43:21;35.50;32.00;21.00
50866;PMS7003;36839;51.946;21.002;2023-04-24T03:45:52;37.00;28.50;21.00
50866;PMS7003;36839;51.946;21.002;2023-04-24T03:48:21;31.00;27.00;17.00
50866;PMS7003;36839;51.946;21.002;2023-04-24T03:50:50;24.00;21.50;18.50
50866;PMS7003;36839;51.946;21.002;2023-04-24T03:53:20;30.50;28.50;21.00
50866;PMS7003;36839;51.946;21.002;2023-04-24T03:55:48;32.00;32.00;22.00
50866;PMS7003;36839;51.946;21.002;2023-04-24T04:00:43;30.33;27.00;19.67
50866;PMS7003;36839;51.946;21.002;2023-04-24T04:03:12;28.00;26.00;19.00
50866;PMS7003;36839;51.946;21.002;2023-04-24T04:05:41;39.00;32.00;23.00
50866;PMS7003;36839;51.946;21.002;2023-04-24T04:08:09;33.50;31.00;21.00
50866;PMS7003;36839;51.946;21.002;2023-04-24T04:10:37;32.00;30.00;21.00
50866;PMS7003;36839;51.946;21.002;2023-04-24T04:13:05;39.00;32.00;23.00
50866;PMS7003;36839;51.946;21.002;2023-04-24T04:15:40;34.50;31.00;21.50
50866;PMS7003;36839;51.946;21.002;2023-04-24T04:18:10;34.33;26.00;19.67
50866;PMS7003;36839;51.946;21.002;2023-04-24T04:20:38;30.00;26.00;21.00
50866;PMS7003;36839;51.946;21.002;2023-04-24T04:23:05;32.00;29.00;21.00
50866;PMS7003;36839;51.946;21.002;2023-04-24T04:25:32;30.50;28.50;21.00
50866;PMS7003;36839;51.946;21.002;2023-04-24T04:28:01;30.00;29.00;20.00
50866;PMS7003;36839;51.946;21.002;2023-04-24T04:30:29;26.50;26.50;21.00
50866;PMS7003;36839;51.946;21.002;2023-04-24T04:32:59;30.00;26.00;20.00
50866;PMS7003;36839;51.946;21.002;2023-04-24T04:35:28;26.00;25.00;17.67
50866;PMS7003;36839;51.946;21.002;2023-04-24T04:37:55;32.00;27.00;20.00
50866;PMS7003;36839;51.946;21.002;2023-04-24T04:40:26;31.67;31.00;21.67
50866;PMS7003;36839;51.946;21.002;2023-04-24T04:42:54;31.00;29.00;18.50
50866;PMS7003;36839;51.946;21.002;2023-04-24T04:45:23;32.00;29.50;21.50
50866;PMS7003;36839;51.946;21.002;2023-04-24T04:47:51;32.00;29.00;22.00
50866;PMS7003;36839;51.946;21.002;2023-04-24T04:50:19;27.00;23.50;17.50
50866;PMS7003;36839;51.946;21.002;2023-04-24T04:52:53;24.00;21.50;16.50
50866;PMS7003;36839;51.946;21.002;2023-04-24T04:55:20;24.50;22.00;17.00
50866;PMS7003;36839;51.946;21.002;2023-04-24T04:57:50;20.00;18.00;12.50
50866;PMS7003;36839;51.946;21.002;2023-04-24T05:00:19;25.00;23.00;17.00
50866;PMS7003;36839;51.946;21.002;2023-04-24T05:02:46;24.00;23.00;18.00
50866;PMS7003;36839;51.946;21.002;2023-04-24T05:05:13;33.00;27.33;21.00
50866;PMS7003;36839;51.946;21.002;2023-04-24T05:07:43;23.50;23.50;16.50
50866;PMS7003;36839;51.946;21.002;2023-04-24T05:10:12;37.50;31.50;22.50
50866;PMS7003;36839;51.946;21.002;2023-04-24T05:12:41;34.00;31.00;24.00
50866;PMS7003;36839;51.946;21.002;2023-04-24T05:15:08;49.00;40.00;29.00
50866;PMS7003;36839;51.946;21.002;2023-04-24T05:17:37;38.00;35.00;23.50
50866;PMS7003;36839;51.946;21.002;2023-04-24T05:20:11;37.33;31.00;21.67
50866;PMS7003;36839;51.946;21.002;2023-04-24T05:22:39;37.50;34.50;24.00
50866;PMS7003;36839;51.946;21.002;2023-04-24T05:25:08;39.00;33.00;25.00
50866;PMS7003;36839;51.946;21.002;2023-04-24T05:27:35;30.00;30.00;22.00
50866;PMS7003;36839;51.946;21.002;2023-04-24T05:30:06;35.00;30.00;21.00
50866;PMS7003;36839;51.946;21.002;2023-04-24T05:32:41;33.67;30.33;22.67
50866;PMS7003;36839;51.946;21.002;2023-04-24T05:35:08;27.00;27.00;20.00
50866;PMS7003;36839;51.946;21.002;2023-04-24T05:37:35;34.33;30.67;21.33
50866;PMS7003;36839;51.946;21.002;2023-04-24T05:40:03;33.50;26.50;20.00
50866;PMS7003;36839;51.946;21.002;2023-04-24T05:42:35;26.50;26.50;21.50
50866;PMS7003;36839;51.946;21.002;2023-04-24T05:45:02;39.00;30.00;22.00
50866;PMS7003;36839;51.946;21.002;2023-04-24T05:47:29;34.00;28.00;21.00
50866;PMS7003;36839;51.946;21.002;2023-04-24T05:52:24;38.00;31.00;23.00
50866;PMS7003;36839;51.946;21.002;2023-04-24T05:54:51;30.00;30.00;21.00
50866;PMS7003;36839;51.946;21.002;2023-04-24T05:57:18;39.50;31.50;21.50
50866;PMS7003;36839;51.946;21.002;2023-04-24T05:59:46;34.00;30.00;22.00
50866;PMS7003;36839;51.946;21.002;2023-04-24T06:02:14;31.50;28.00;21.00
50866;PMS7003;36839;51.946;21.002;2023-04-24T06:04:44;36.00;30.00;21.00
50866;PMS7003;36839;51.946;21.002;2023-04-24T06:07:11;35.00;30.00;22.00
50866;PMS7003;36839;51.946;21.002;2023-04-24T06:09:39;36.00;31.00;21.00
50866;PMS7003;36839;51.946;21.002;2023-04-24T06:12:07;31.00;30.00;24.00
50866;PMS7003;36839;51.946;21.002;2023-04-24T06:14:36;30.00;27.00;20.00
50866;PMS7003;36839;51.946;21.002;2023-04-24T06:17:04;40.50;32.50;24.00
50866;PMS7003;36839;51.946;21.002;2023-04-24T06:19:32;34.00;31.00;24.00
50866;PMS7003;36839;51.946;21.002;2023-04-24T06:21:59;36.00;33.00;25.00
50866;PMS7003;36839;51.946;21.002;2023-04-24T06:24:29;36.50;31.50;21.50
50866;PMS7003;36839;51.946;21.002;2023-04-24T06:26:57;33.00;30.00;22.50
50866;PMS7003;36839;51.946;21.002;2023-04-24T06:29:30;36.00;33.00;24.50
50866;PMS7003;36839;51.946;21.002;2023-04-24T06:31:57;31.00;27.50;20.50
50866;PMS7003;36839;51.946;21.002;2023-04-24T06:34:24;33.50;31.00;22.50
50866;PMS7003;36839;51.946;21.002;2023-04-24T06:36:52;34.00;30.00;19.00
50866;PMS7003;36839;51.946;21.002;2023-04-24T06:39:21;30.00;26.33;21.33
50866;PMS7003;36839;51.946;21.002;2023-04-24T06:41:50;34.00;31.50;22.50
50866;PMS7003;36839;51.946;21.002;2023-04-24T06:44:21;29.67;29.67;23.33
50866;PMS7003;36839;51.946;21.002;2023-04-24T06:46:49;32.00;28.50;21.50
50866;PMS7003;36839;51.946;21.002;2023-04-24T06:49:16;30.00;28.00;22.00
50866;PMS7003;36839;51.946;21.002;2023-04-24T06:51:44;32.00;27.00;20.50
50866;PMS7003;36839;51.946;21.002;2023-04-24T06:54:20;26.00;21.00;17.00
50866;PMS7003;36839;51.946;21.002;2023-04-24T06:56:47;28.00;26.00;20.00
50866;PMS7003;36839;51.946;21.002;2023-04-24T06:59:20;33.33;31.00;22.33
50866;PMS7003;36839;51.946;21.002;2023-04-24T07:01:48;32.00;26.00;20.00
50866;PMS7003;36839;51.946;21.002;2023-04-24T07:04:16;29.00;28.00;21.00
50866;PMS7003;36839;51.946;21.002;2023-04-24T07:06:47;28.00;27.67;19.33
50866;PMS7003;36839;51.946;21.002;2023-04-24T07:09:14;29.00;27.00;19.00
50866;PMS7003;36839;51.946;21.002;2023-04-24T07:11:49;33.00;30.50;21.50
50866;PMS7003;36839;51.946;21.002;2023-04-24T07:14:17;36.00;29.00;21.00
50866;PMS7003;36839;51.946;21.002;2023-04-24T07:16:48;31.00;26.50;17.50
50866;PMS7003;36839;51.946;21.002;2023-04-24T07:19:19;32.00;30.00;21.00
50866;PMS7003;36839;51.946;21.002;2023-04-24T07:21:48;32.00;29.00;21.00
50866;PMS7003;36839;51.946;21.002;2023-04-24T07:24:19;14.00;12.00;4.00
50866;PMS7003;36839;51.946;21.002;2023-04-24T07:26:50;37.00;32.00;21.00
50866;PMS7003;36839;51.946;21.002;2023-04-24T07:29:18;36.50;33.50;23.50
50866;PMS7003;36839;51.946;21.002;2023-04-24T07:31:46;41.00;34.00;25.00
50866;PMS7003;36839;51.946;21.002;2023-04-24T07:34:14;32.50;29.50;21.50
50866;PMS7003;36839;51.946;21.002;2023-04-24T07:36:44;37.00;32.00;23.00
50866;PMS7003;36839;51.946;21.002;2023-04-24T07:39:12;33.50;30.50;22.50
50866;PMS7003;36839;51.946;21.002;2023-04-24T07:41:39;30.00;29.00;21.00
50866;PMS7003;36839;51.946;21.002;2023-04-24T07:44:06;29.67;26.67;19.33
50866;PMS7003;36839;51.946;21.002;2023-04-24T07:46:33;29.00;26.00;19.00
50866;PMS7003;36839;51.946;21.002;2023-04-24T07:49:02;25.00;23.00;18.00
50866;PMS7003;36839;51.946;21.002;2023-04-24T07:51:30;36.50;31.00;23.50
50866;PMS7003;36839;51.946;21.002;2023-04-24T07:54:04;33.00;29.00;22.00
50866;PMS7003;36839;51.946;21.002;2023-04-24T07:56:34;34.00;30.00;21.00
50866;PMS7003;36839;51.946;21.002;2023-04-24T07:59:12;25.50;25.50;21.00
50866;PMS7003;36839;51.946;21.002;2023-04-24T08:01:40;33.00;32.00;23.00
50866;PMS7003;36839;51.946;21.002;2023-04-24T08:04:08;29.50;29.00;21.50
50866;PMS7003;36839;51.946;21.002;2023-04-24T08:06:35;34.50;27.50;21.50
50866;PMS7003;36839;51.946;21.002;2023-04-24T08:11:30;26.50;25.50;18.00
50866;PMS7003;36839;51.946;21.002;2023-04-24T08:13:59;34.00;29.00;21.00
50866;PMS7003;36839;51.946;21.002;2023-04-24T08:16:27;31.00;29.00;21.00
50866;PMS7003;36839;51.946;21.002;2023-04-24T08:18:54;28.00;21.00;19.50
50866;PMS7003;36839;51.946;21.002;2023-04-24T08:21:22;24.50;23.00;18.00
50866;PMS7003;36839;51.946;21.002;2023-04-24T08:23:50;31.00;26.00;20.00
50866;PMS7003;36839;51.946;21.002;2023-04-24T08:26:17;31.67;31.00;21.33
50866;PMS7003;36839;51.946;21.002;2023-04-24T08:28:48;32.00;32.00;22.50
50866;PMS7003;36839;51.946;21.002;2023-04-24T08:31:19;29.00;29.00;20.00
50866;PMS7003;36839;51.946;21.002;2023-04-24T08:33:46;37.00;34.00;24.50
50866;PMS7003;36839;51.946;21.002;2023-04-24T08:36:15;34.00;31.00;21.00
50866;PMS7003;36839;51.946;21.002;2023-04-24T08:38:42;34.00;31.00;21.00
50866;PMS7003;36839;51.946;21.002;2023-04-24T08:41:14;26.00;25.00;18.00
50866;PMS7003;36839;51.946;21.002;2023-04-24T08:43:43;25.50;24.00;16.50
50866;PMS7003;36839;51.946;21.002;2023-04-24T08:46:10;25.50;21.50;18.00
50866;PMS7003;36839;51.946;21.002;2023-04-24T08:48:39;26.00;24.00;19.00
50866;PMS7003;36839;51.946;21.002;2023-04-24T08:51:07;28.50;23.50;18.50
50866;PMS7003;36839;51.946;21.002;2023-04-24T08:53:36;29.00;22.00;18.00
50866;PMS7003;36839;51.946;21.002;2023-04-24T08:56:03;27.50;27.50;18.50
50866;PMS7003;36839;51.946;21.002;2023-04-24T08:58:35;30.00;24.00;20.00
50866;PMS7003;36839;51.946;21.002;2023-04-24T09:01:05;25.00;25.00;19.00
50866;PMS7003;36839;51.946;21.002;2023-04-24T09:03:33;30.00;26.00;19.00
50866;PMS7003;36839;51.946;21.002;2023-04-24T09:06:02;27.00;23.00;17.00
50866;PMS7003;36839;51.946;21.002;2023-04-24T09:08:33;28.00;28.00;19.00
50866;PMS7003;36839;51.946;21.002;2023-04-24T09:13:30;28.00;25.00;20.00
50866;PMS7003;36839;51.946;21.002;2023-04-24T09:15:58;23.00;23.00;18.00
50866;PMS7003;36839;51.946;21.002;2023-04-24T09:18:27;34.00;24.00;19.00
50866;PMS7003;36839;51.946;21.002;2023-04-24T09:21:02;29.00;26.00;19.00
50866;PMS7003;36839;51.946;21.002;2023-04-24T09:23:30;33.50;27.00;20.00
50866;PMS7003;36839;51.946;21.002;2023-04-24T09:28:31;27.00;24.00;18.00
50866;PMS7003;36839;51.946;21.002;2023-04-24T09:31:17;27.50;27.50;21.50
50866;PMS7003;36839;51.946;21.002;2023-04-24T09:33:55;32.00;27.50;21.50
50866;PMS7003;36839;51.946;21.002;2023-04-24T09:39:16;22.00;22.00;18.00
50866;PMS7003;36839;51.946;21.002;2023-04-24T09:41:47;26.50;24.50;19.50
50866;PMS7003;36839;51.946;21.002;2023-04-24T09:44:36;27.00;25.00;18.00
50866;PMS7003;36839;51.946;21.002;2023-04-24T09:47:02;30.00;28.00;21.00
50866;PMS7003;36839;51.946;21.002;2023-04-24T09:49:35;28.00;25.00;19.00
50866;PMS7003;36839;51.946;21.002;2023-04-24T09:52:10;26.00;24.00;19.00
50866;PMS7003;36839;51.946;21.002;2023-04-24T09:54:39;30.00;29.00;21.50
50866;PMS7003;36839;51.946;21.002;2023-04-24T09:57:09;30.00;29.00;22.00
50866;PMS7003;36839;51.946;21.002;2023-04-24T09:59:41;27.00;27.00;21.00
50866;PMS7003;36839;51.946;21.002;2023-04-24T10:02:18;33.50;32.50;21.50
50866;PMS7003;36839;51.946;21.002;2023-04-24T10:04:56;29.00;27.50;20.50
50866;PMS7003;36839;51.946;21.002;2023-04-24T10:07:26;30.00;25.50;18.50
50866;PMS7003;36839;51.946;21.002;2023-04-24T10:09:53;29.00;29.00;21.00
50866;PMS7003;36839;51.946;21.002;2023-04-24T10:12:21;24.00;22.00;18.00
50866;PMS7003;36839;51.946;21.002;2023-04-24T10:14:48;24.33;24.33;18.67
50866;PMS7003;36839;51.946;21.002;2023-04-24T10:17:15;27.00;23.00;17.00
50866;PMS7003;36839;51.946;21.002;2023-04-24T10:19:44;26.00;23.00;17.00
50866;PMS7003;36839;51.946;21.002;2023-04-24T10:22:16;26.00;22.00;17.00
50866;PMS7003;36839;51.946;21.002;2023-04-24T10:24:44;26.50;23.50;19.50
50866;PMS7003;36839;51.946;21.002;2023-04-24T10:27:14;26.00;26.00;20.00
50866;PMS7003;36839;51.946;21.002;2023-04-24T10:29:43;26.00;26.00;18.00
50866;PMS7003;36839;51.946;21.002;2023-04-24T10:32:11;23.50;23.50;18.00
50866;PMS7003;36839;51.946;21.002;2023-04-24T10:34:38;25.00;22.50;16.00
50866;PMS7003;36839;51.946;21.002;2023-04-24T10:37:06;23.50;21.50;17.00
50866;PMS7003;36839;51.946;21.002;2023-04-24T10:39:38;26.50;24.00;19.50
50866;PMS7003;36839;51.946;21.002;2023-04-24T10:42:15;23.50;20.00;13.50
50866;PMS7003;36839;51.946;21.002;2023-04-24T10:44:43;23.00;19.00;15.00
50866;PMS7003;36839;51.946;21.002;2023-04-24T10:47:15;18.00;16.00;12.00
50866;PMS7003;36839;51.946;21.002;2023-04-24T10:49:44;22.50;21.00;15.50
50866;PMS7003;36839;51.946;21.002;2023-04-24T10:52:14;21.00;21.00;16.00
50866;PMS7003;36839;51.946;21.002;2023-04-24T10:54:42;25.00;21.50;14.50
50866;PMS7003;36839;51.946;21.002;2023-04-24T11:00:15;25.00;21.00;16.00
50866;PMS7003;36839;51.946;21.002;2023-04-24T11:02:45;20.00;18.00;16.00
50866;PMS7003;36839;51.946;21.002;2023-04-24T11:05:17;23.00;23.00;17.00
50866;PMS7003;36839;51.946;21.002;2023-04-24T11:08:28;21.00;21.00;16.00
50866;PMS7003;36839;51.946;21.002;2023-04-24T11:10:37;22.50;19.00;15.50
50866;PMS7003;36839;51.946;21.002;2023-04-24T11:13:05;19.50;19.50;15.00
50866;PMS7003;36839;51.946;21.002;2023-04-24T11:15:31;20.00;19.50;15.50
50866;PMS7003;36839;51.946;21.002;2023-04-24T11:18:00;19.50;16.00;13.00
50866;PMS7003;36839;51.946;21.002;2023-04-24T11:20:29;19.00;19.00;14.00
50866;PMS7003;36839;51.946;21.002;2023-04-24T11:23:00;19.00;16.50;13.00
50866;PMS7003;36839;51.946;21.002;2023-04-24T11:25:30;19.50;18.50;14.00
50866;PMS7003;36839;51.946;21.002;2023-04-24T11:28:04;22.00;22.00;16.00
50866;PMS7003;36839;51.946;21.002;2023-04-24T11:30:32;23.00;20.00;15.00
50866;PMS7003;36839;51.946;21.002;2023-04-24T11:33:04;21.50;21.50;17.50
50866;PMS7003;36839;51.946;21.002;2023-04-24T11:35:35;21.00;19.50;14.00
50866;PMS7003;36839;51.946;21.002;2023-04-24T11:38:10;21.50;20.00;17.00
50866;PMS7003;36839;51.946;21.002;2023-04-24T11:40:37;23.00;21.00;15.00
50866;PMS7003;36839;51.946;21.002;2023-04-24T11:43:06;22.33;21.00;15.67
50866;PMS7003;36839;51.946;21.002;2023-04-24T11:45:33;20.00;20.00;14.00
50866;PMS7003;36839;51.946;21.002;2023-04-24T11:48:00;22.50;20.50;16.00
50866;PMS7003;36839;51.946;21.002;2023-04-24T11:50:31;19.50;19.50;15.00
50866;PMS7003;36839;51.946;21.002;2023-04-24T11:52:59;23.50;21.00;15.50
50866;PMS7003;36839;51.946;21.002;2023-04-24T11:55:29;16.50;16.00;14.00
50866;PMS7003;36839;51.946;21.002;2023-04-24T11:57:57;23.00;20.00;16.00
50866;PMS7003;36839;51.946;21.002;2023-04-24T12:00:25;23.00;18.00;14.00
50866;PMS7003;36839;51.946;21.002;2023-04-24T12:03:09;17.00;15.00;11.00
50866;PMS7003;36839;51.946;21.002;2023-04-24T12:05:38;17.00;17.00;13.00
50866;PMS7003;36839;51.946;21.002;2023-04-24T12:08:06;19.00;15.00;12.00
50866;PMS7003;36839;51.946;21.002;2023-04-24T12:10:35;14.00;12.00;10.00
50866;PMS7003;36839;51.946;21.002;2023-04-24T12:13:04;12.00;11.00;9.00
50866;PMS7003;36839;51.946;21.002;2023-04-24T12:15:44;11.00;11.00;7.50
50866;PMS7003;36839;51.946;21.002;2023-04-24T12:18:24;11.50;11.00;10.00
50866;PMS7003;36839;51.946;21.002;2023-04-24T12:21:14;14.00;13.00;11.00
50866;PMS7003;36839;51.946;21.002;2023-04-24T12:23:44;16.50;15.00;11.50
50866;PMS7003;36839;51.946;21.002;2023-04-24T12:26:15;10.00;10.00;9.00
50866;PMS7003;36839;51.946;21.002;2023-04-24T12:28:42;12.00;10.00;10.00
50866;PMS7003;36839;51.946;21.002;2023-04-24T12:31:10;16.00;13.00;9.00
50866;PMS7003;36839;51.946;21.002;2023-04-24T12:33:37;8.00;7.00;7.00
50866;PMS7003;36839;51.946;21.002;2023-04-24T12:36:14;12.00;12.00;10.00
50866;PMS7003;36839;51.946;21.002;2023-04-24T12:38:43;14.00;11.00;9.00
50866;PMS7003;36839;51.946;21.002;2023-04-24T12:41:12;15.50;13.50;10.50
50866;PMS7003;36839;51.946;21.002;2023-04-24T12:43:51;11.00;10.00;8.00
50866;PMS7003;36839;51.946;21.002;2023-04-24T12:46:18;14.00;14.00;11.00
50866;PMS7003;36839;51.946;21.002;2023-04-24T12:48:48;15.00;11.00;9.00
50866;PMS7003;36839;51.946;21.002;2023-04-24T12:51:16;13.67;11.33;8.67
50866;PMS7003;36839;51.946;21.002;2023-04-24T12:53:44;16.00;16.00;13.00
50866;PMS7003;36839;51.946;21.002;2023-04-24T12:56:11;16.00;14.00;10.00
50866;PMS7003;36839;51.946;21.002;2023-04-24T12:58:38;16.00;15.00;11.50
50866;PMS7003;36839;51.946;21.002;2023-04-24T13:01:06;15.50;14.00;10.50
50866;PMS7003;36839;51.946;21.002;2023-04-24T13:03:34;18.00;13.00;11.00
50866;PMS7003;36839;51.946;21.002;2023-04-24T13:06:03;14.00;14.00;11.00
50866;PMS7003;36839;51.946;21.002;2023-04-24T13:08:33;20.00;15.00;11.00
50866;PMS7003;36839;51.946;21.002;2023-04-24T13:10:59;16.00;15.00;11.00
50866;PMS7003;36839;51.946;21.002;2023-04-24T13:13:26;14.00;14.00;9.50
50866;PMS7003;36839;51.946;21.002;2023-04-24T13:15:55;15.00;13.00;9.00
50866;PMS7003;36839;51.946;21.002;2023-04-24T13:18:23;13.00;13.00;10.50
50866;PMS7003;36839;51.946;21.002;2023-04-24T13:20:54;16.00;13.00;11.00
50866;PMS7003;36839;51.946;21.002;2023-04-24T13:23:23;14.00;12.00;10.00
50866;PMS7003;36839;51.946;21.002;2023-04-24T13:26:00;17.00;17.00;13.50
50866;PMS7003;36839;51.946;21.002;2023-04-24T13:28:29;14.00;14.00;10.00
50866;PMS7003;36839;51.946;21.002;2023-04-24T13:30:58;17.67;16.33;10.67
50866;PMS7003;36839;51.946;21.002;2023-04-24T13:33:25;14.00;13.00;9.00
50866;PMS7003;36839;51.946;21.002;2023-04-24T13:35:56;12.33;12.00;9.33
50866;PMS7003;36839;51.946;21.002;2023-04-24T13:38:24;19.00;15.00;11.00
50866;PMS7003;36839;51.946;21.002;2023-04-24T13:40:52;17.00;14.00;10.00
50866;PMS7003;36839;51.946;21.002;2023-04-24T13:43:20;10.00;10.00;8.50
50866;PMS7003;36839;51.946;21.002;2023-04-24T13:45:49;16.50;14.00;10.50
50866;PMS7003;36839;51.946;21.002;2023-04-24T13:48:16;16.00;12.00;10.00
50866;PMS7003;36839;51.946;21.002;2023-04-24T13:50:49;12.33;12.33;10.00
50866;PMS7003;36839;51.946;21.002;2023-04-24T13:53:23;15.00;13.00;10.00
50866;PMS7003;36839;51.946;21.002;2023-04-24T13:55:50;17.00;16.00;12.00
50866;PMS7003;36839;51.946;21.002;2023-04-24T13:58:20;13.50;13.50;10.00
50866;PMS7003;36839;51.946;21.002;2023-04-24T14:00:48;17.50;13.50;11.00
50866;PMS7003;36839;51.946;21.002;2023-04-24T14:03:15;11.00;11.00;9.00
50866;PMS7003;36839;51.946;21.002;2023-04-24T14:05:44;16.00;13.00;10.00